首页
METAR-TAF:

METAR-TAF

机场 :

克基拉岛扬尼斯·卡波迪斯特里亚斯国际机场

克基拉島, 希腊

纬度: 39-37N, 经度: 019-55E, 海拔: 2米

当前天气观测

该预报发布于35分钟前的15:20 UTC
风速5节,风向西
温度 14°C
湿度 72%
气压 1034 hPa
能见度10公里或以上
散云层高于3000英尺

METAR: LGKR 201520Z 27005KT 9999 SCT030 14/09 Q1034 NOSIG

时间: 17:55 (15:55 UTC)

预报

该预报发布于4小时和55分钟前的11:00 UTC
预报有效从20日的 12点(UTC)到 21日的 12点(UTC)
风速8节,风向东转东南
能见度10公里或以上
少量云层高于1800英尺

TAF: LGKR 201100Z 2012/2112 12008KT 9999 FEW018

超过4000个机场的气象观测和天气预报(METAR&TAF报告)。

可查询的气象台以黄色和红色小点在地图上表示。

将鼠标移到小点上方,可查看气象台名称。

然后点击查看天气观测和预报。

如需切换地图:点击带黑十字的绿色按钮放大地图;点击带横线的绿色按钮缩小地图;或者点击绿色箭头查看邻近地区的地图。


METAR-TAF: